sensor_id;sensor_type;location;lat;lon;timestamp;P1;durP1;ratioP1;P2;durP2;ratioP2
24897;SDS011;12957;49.434;8.684;2023-09-30T00:00:06;5.60;;;3.28;;
24897;SDS011;12957;49.434;8.684;2023-09-30T00:02:33;9.60;;;3.78;;
24897;SDS011;12957;49.434;8.684;2023-09-30T00:04:59;7.93;;;3.60;;
24897;SDS011;12957;49.434;8.684;2023-09-30T00:07:24;6.05;;;3.28;;
24897;SDS011;12957;49.434;8.684;2023-09-30T00:09:51;4.05;;;2.90;;
24897;SDS011;12957;49.434;8.684;2023-09-30T00:12:17;4.45;;;3.10;;
24897;SDS011;12957;49.434;8.684;2023-09-30T00:14:43;7.72;;;3.40;;
24897;SDS011;12957;49.434;8.684;2023-09-30T00:17:08;8.40;;;3.15;;
24897;SDS011;12957;49.434;8.684;2023-09-30T00:19:34;3.72;;;2.92;;
24897;SDS011;12957;49.434;8.684;2023-09-30T00:21:59;4.90;;;3.38;;
24897;SDS011;12957;49.434;8.684;2023-09-30T00:24:25;3.95;;;3.08;;
24897;SDS011;12957;49.434;8.684;2023-09-30T00:26:51;7.88;;;3.45;;
24897;SDS011;12957;49.434;8.684;2023-09-30T00:29:16;9.80;;;3.30;;
24897;SDS011;12957;49.434;8.684;2023-09-30T00:31:43;5.68;;;3.30;;
24897;SDS011;12957;49.434;8.684;2023-09-30T00:34:09;4.82;;;3.30;;
24897;SDS011;12957;49.434;8.684;2023-09-30T00:36:35;6.10;;;3.47;;
24897;SDS011;12957;49.434;8.684;2023-09-30T00:39:00;7.28;;;3.50;;
24897;SDS011;12957;49.434;8.684;2023-09-30T00:41:26;5.65;;;3.22;;
24897;SDS011;12957;49.434;8.684;2023-09-30T00:43:51;7.00;;;3.30;;
24897;SDS011;12957;49.434;8.684;2023-09-30T00:46:18;5.75;;;3.35;;
24897;SDS011;12957;49.434;8.684;2023-09-30T00:48:54;9.10;;;3.70;;
24897;SDS011;12957;49.434;8.684;2023-09-30T00:51:21;7.20;;;3.13;;
24897;SDS011;12957;49.434;8.684;2023-09-30T00:53:46;6.25;;;3.20;;
24897;SDS011;12957;49.434;8.684;2023-09-30T00:56:12;7.28;;;3.58;;
24897;SDS011;12957;49.434;8.684;2023-09-30T00:58:38;5.80;;;3.20;;
24897;SDS011;12957;49.434;8.684;2023-09-30T01:01:03;8.05;;;3.33;;
24897;SDS011;12957;49.434;8.684;2023-09-30T01:03:29;5.13;;;3.40;;
24897;SDS011;12957;49.434;8.684;2023-09-30T01:05:55;5.32;;;3.28;;
24897;SDS011;12957;49.434;8.684;2023-09-30T01:08:20;7.10;;;3.65;;
24897;SDS011;12957;49.434;8.684;2023-09-30T01:10:46;5.00;;;3.20;;
24897;SDS011;12957;49.434;8.684;2023-09-30T01:13:12;7.45;;;3.30;;
24897;SDS011;12957;49.434;8.684;2023-09-30T01:15:37;4.63;;;3.22;;
24897;SDS011;12957;49.434;8.684;2023-09-30T01:18:03;4.90;;;3.00;;
24897;SDS011;12957;49.434;8.684;2023-09-30T01:20:29;5.93;;;3.40;;
24897;SDS011;12957;49.434;8.684;2023-09-30T01:22:54;5.30;;;2.83;;
24897;SDS011;12957;49.434;8.684;2023-09-30T01:25:21;6.38;;;2.90;;
24897;SDS011;12957;49.434;8.684;2023-09-30T01:27:47;4.13;;;2.88;;
24897;SDS011;12957;49.434;8.684;2023-09-30T01:30:12;4.72;;;3.25;;
24897;SDS011;12957;49.434;8.684;2023-09-30T01:32:38;5.03;;;2.80;;
24897;SDS011;12957;49.434;8.684;2023-09-30T01:35:05;7.57;;;3.13;;
24897;SDS011;12957;49.434;8.684;2023-09-30T01:37:30;6.88;;;3.25;;
24897;SDS011;12957;49.434;8.684;2023-09-30T01:39:56;4.10;;;2.85;;
24897;SDS011;12957;49.434;8.684;2023-09-30T01:42:22;4.75;;;3.10;;
24897;SDS011;12957;49.434;8.684;2023-09-30T01:44:47;5.20;;;2.88;;
24897;SDS011;12957;49.434;8.684;2023-09-30T01:47:13;5.13;;;3.20;;
24897;SDS011;12957;49.434;8.684;2023-09-30T01:49:38;5.57;;;3.03;;
24897;SDS011;12957;49.434;8.684;2023-09-30T01:52:04;6.20;;;3.33;;
24897;SDS011;12957;49.434;8.684;2023-09-30T01:54:29;5.15;;;2.90;;
24897;SDS011;12957;49.434;8.684;2023-09-30T01:56:55;3.03;;;2.55;;
24897;SDS011;12957;49.434;8.684;2023-09-30T01:59:20;5.38;;;3.40;;
24897;SDS011;12957;49.434;8.684;2023-09-30T02:01:46;6.50;;;2.92;;
24897;SDS011;12957;49.434;8.684;2023-09-30T02:04:12;6.05;;;2.97;;
24897;SDS011;12957;49.434;8.684;2023-09-30T02:06:40;4.25;;;2.97;;
24897;SDS011;12957;49.434;8.684;2023-09-30T02:09:05;8.93;;;3.30;;
24897;SDS011;12957;49.434;8.684;2023-09-30T02:11:33;7.28;;;2.90;;
24897;SDS011;12957;49.434;8.684;2023-09-30T02:13:59;7.13;;;3.13;;
24897;SDS011;12957;49.434;8.684;2023-09-30T02:16:25;4.95;;;2.97;;
24897;SDS011;12957;49.434;8.684;2023-09-30T02:18:51;5.53;;;3.15;;
24897;SDS011;12957;49.434;8.684;2023-09-30T02:21:17;4.00;;;2.83;;
24897;SDS011;12957;49.434;8.684;2023-09-30T02:23:43;5.15;;;3.05;;
24897;SDS011;12957;49.434;8.684;2023-09-30T02:26:12;4.43;;;2.65;;
24897;SDS011;12957;49.434;8.684;2023-09-30T02:28:41;8.80;;;3.10;;
24897;SDS011;12957;49.434;8.684;2023-09-30T02:31:06;4.45;;;3.00;;
24897;SDS011;12957;49.434;8.684;2023-09-30T02:33:35;4.80;;;2.58;;
24897;SDS011;12957;49.434;8.684;2023-09-30T02:36:00;6.82;;;3.25;;
24897;SDS011;12957;49.434;8.684;2023-09-30T02:38:26;8.45;;;3.10;;
24897;SDS011;12957;49.434;8.684;2023-09-30T02:40:53;5.10;;;3.00;;
24897;SDS011;12957;49.434;8.684;2023-09-30T02:43:19;5.80;;;2.83;;
24897;SDS011;12957;49.434;8.684;2023-09-30T02:45:45;6.57;;;3.13;;
24897;SDS011;12957;49.434;8.684;2023-09-30T02:48:11;5.10;;;2.70;;
24897;SDS011;12957;49.434;8.684;2023-09-30T02:50:36;8.38;;;3.10;;
24897;SDS011;12957;49.434;8.684;2023-09-30T02:53:02;4.80;;;3.35;;
24897;SDS011;12957;49.434;8.684;2023-09-30T02:55:29;8.77;;;3.60;;
24897;SDS011;12957;49.434;8.684;2023-09-30T02:57:54;4.75;;;3.00;;
24897;SDS011;12957;49.434;8.684;2023-09-30T03:00:21;8.77;;;3.33;;
24897;SDS011;12957;49.434;8.684;2023-09-30T03:02:51;8.00;;;3.08;;
24897;SDS011;12957;49.434;8.684;2023-09-30T03:05:17;7.30;;;3.50;;
24897;SDS011;12957;49.434;8.684;2023-09-30T03:07:43;8.90;;;4.13;;
24897;SDS011;12957;49.434;8.684;2023-09-30T03:10:09;11.10;;;3.88;;
24897;SDS011;12957;49.434;8.684;2023-09-30T03:12:35;8.48;;;3.55;;
24897;SDS011;12957;49.434;8.684;2023-09-30T03:15:01;7.15;;;3.78;;
24897;SDS011;12957;49.434;8.684;2023-09-30T03:17:30;7.07;;;3.80;;
24897;SDS011;12957;49.434;8.684;2023-09-30T03:19:57;8.00;;;3.80;;
24897;SDS011;12957;49.434;8.684;2023-09-30T03:22:22;8.40;;;3.95;;
24897;SDS011;12957;49.434;8.684;2023-09-30T03:24:48;6.95;;;4.15;;
24897;SDS011;12957;49.434;8.684;2023-09-30T03:27:14;7.95;;;4.35;;
24897;SDS011;12957;49.434;8.684;2023-09-30T03:29:40;7.68;;;4.53;;
24897;SDS011;12957;49.434;8.684;2023-09-30T03:32:06;5.93;;;4.25;;
24897;SDS011;12957;49.434;8.684;2023-09-30T03:34:32;11.30;;;4.93;;
24897;SDS011;12957;49.434;8.684;2023-09-30T03:37:02;11.00;;;4.50;;
24897;SDS011;12957;49.434;8.684;2023-09-30T03:39:28;10.70;;;4.55;;
24897;SDS011;12957;49.434;8.684;2023-09-30T03:41:54;8.40;;;4.15;;
24897;SDS011;12957;49.434;8.684;2023-09-30T03:44:21;8.07;;;4.20;;
24897;SDS011;12957;49.434;8.684;2023-09-30T03:46:48;13.00;;;4.93;;
24897;SDS011;12957;49.434;8.684;2023-09-30T03:49:15;12.60;;;4.78;;
24897;SDS011;12957;49.434;8.684;2023-09-30T03:51:41;13.02;;;4.85;;
24897;SDS011;12957;49.434;8.684;2023-09-30T03:54:06;6.35;;;4.40;;
24897;SDS011;12957;49.434;8.684;2023-09-30T03:56:33;10.13;;;4.82;;
24897;SDS011;12957;49.434;8.684;2023-09-30T03:58:59;16.25;;;5.18;;
24897;SDS011;12957;49.434;8.684;2023-09-30T04:01:24;7.60;;;4.68;;
24897;SDS011;12957;49.434;8.684;2023-09-30T04:03:51;8.30;;;4.65;;
24897;SDS011;12957;49.434;8.684;2023-09-30T04:06:20;13.80;;;5.38;;
24897;SDS011;12957;49.434;8.684;2023-09-30T04:08:46;11.65;;;5.40;;
24897;SDS011;12957;49.434;8.684;2023-09-30T04:11:12;8.18;;;5.22;;
24897;SDS011;12957;49.434;8.684;2023-09-30T04:13:42;10.45;;;4.95;;
24897;SDS011;12957;49.434;8.684;2023-09-30T04:16:09;9.55;;;5.47;;
24897;SDS011;12957;49.434;8.684;2023-09-30T04:18:35;8.98;;;5.25;;
24897;SDS011;12957;49.434;8.684;2023-09-30T04:21:00;11.80;;;5.28;;
24897;SDS011;12957;49.434;8.684;2023-09-30T04:23:29;9.82;;;5.55;;
24897;SDS011;12957;49.434;8.684;2023-09-30T04:25:54;9.27;;;5.38;;
24897;SDS011;12957;49.434;8.684;2023-09-30T04:28:20;9.52;;;5.47;;
24897;SDS011;12957;49.434;8.684;2023-09-30T04:30:46;9.00;;;5.40;;
24897;SDS011;12957;49.434;8.684;2023-09-30T04:33:13;10.75;;;5.50;;
24897;SDS011;12957;49.434;8.684;2023-09-30T04:35:39;7.75;;;5.22;;
24897;SDS011;12957;49.434;8.684;2023-09-30T04:38:04;8.02;;;5.20;;
24897;SDS011;12957;49.434;8.684;2023-09-30T04:40:30;10.50;;;5.63;;
24897;SDS011;12957;49.434;8.684;2023-09-30T04:42:55;10.60;;;5.40;;
24897;SDS011;12957;49.434;8.684;2023-09-30T04:45:26;10.88;;;6.10;;
24897;SDS011;12957;49.434;8.684;2023-09-30T04:47:55;12.70;;;5.53;;
24897;SDS011;12957;49.434;8.684;2023-09-30T04:50:23;9.00;;;5.88;;
24897;SDS011;12957;49.434;8.684;2023-09-30T04:52:52;12.25;;;5.85;;
24897;SDS011;12957;49.434;8.684;2023-09-30T04:55:18;11.45;;;5.50;;
24897;SDS011;12957;49.434;8.684;2023-09-30T04:57:44;10.23;;;5.35;;
24897;SDS011;12957;49.434;8.684;2023-09-30T05:00:14;9.10;;;5.72;;
24897;SDS011;12957;49.434;8.684;2023-09-30T05:02:42;12.10;;;5.30;;
24897;SDS011;12957;49.434;8.684;2023-09-30T05:05:09;13.60;;;5.55;;
24897;SDS011;12957;49.434;8.684;2023-09-30T05:07:35;9.93;;;5.20;;
24897;SDS011;12957;49.434;8.684;2023-09-30T05:10:01;8.23;;;4.93;;
24897;SDS011;12957;49.434;8.684;2023-09-30T05:12:30;12.45;;;5.53;;
24897;SDS011;12957;49.434;8.684;2023-09-30T05:14:55;6.18;;;4.95;;
24897;SDS011;12957;49.434;8.684;2023-09-30T05:17:21;12.18;;;4.70;;
24897;SDS011;12957;49.434;8.684;2023-09-30T05:19:47;8.90;;;5.03;;
24897;SDS011;12957;49.434;8.684;2023-09-30T05:22:12;9.75;;;5.75;;
24897;SDS011;12957;49.434;8.684;2023-09-30T05:24:37;9.60;;;5.38;;
24897;SDS011;12957;49.434;8.684;2023-09-30T05:27:03;9.73;;;5.45;;
24897;SDS011;12957;49.434;8.684;2023-09-30T05:29:29;7.72;;;5.93;;
24897;SDS011;12957;49.434;8.684;2023-09-30T05:31:54;12.02;;;6.07;;
24897;SDS011;12957;49.434;8.684;2023-09-30T05:34:21;9.05;;;5.20;;
24897;SDS011;12957;49.434;8.684;2023-09-30T05:36:46;10.45;;;5.90;;
24897;SDS011;12957;49.434;8.684;2023-09-30T05:39:12;12.07;;;6.28;;
24897;SDS011;12957;49.434;8.684;2023-09-30T05:41:38;10.23;;;6.68;;
24897;SDS011;12957;49.434;8.684;2023-09-30T05:44:03;11.60;;;5.20;;
24897;SDS011;12957;49.434;8.684;2023-09-30T05:46:32;8.10;;;5.63;;
24897;SDS011;12957;49.434;8.684;2023-09-30T05:48:58;10.15;;;5.70;;
24897;SDS011;12957;49.434;8.684;2023-09-30T05:51:23;11.18;;;5.32;;
24897;SDS011;12957;49.434;8.684;2023-09-30T05:53:49;9.25;;;5.60;;
24897;SDS011;12957;49.434;8.684;2023-09-30T05:56:15;9.55;;;5.65;;
24897;SDS011;12957;49.434;8.684;2023-09-30T05:58:41;9.07;;;5.35;;
24897;SDS011;12957;49.434;8.684;2023-09-30T06:01:10;10.55;;;5.43;;
24897;SDS011;12957;49.434;8.684;2023-09-30T06:03:36;13.88;;;5.75;;
24897;SDS011;12957;49.434;8.684;2023-09-30T06:06:10;9.38;;;5.53;;
24897;SDS011;12957;49.434;8.684;2023-09-30T06:08:37;12.50;;;5.63;;
24897;SDS011;12957;49.434;8.684;2023-09-30T06:11:02;8.98;;;5.20;;
24897;SDS011;12957;49.434;8.684;2023-09-30T06:13:28;9.82;;;4.93;;
24897;SDS011;12957;49.434;8.684;2023-09-30T06:15:56;7.78;;;5.15;;
24897;SDS011;12957;49.434;8.684;2023-09-30T06:18:22;6.40;;;4.30;;
24897;SDS011;12957;49.434;8.684;2023-09-30T06:20:47;8.68;;;4.57;;
24897;SDS011;12957;49.434;8.684;2023-09-30T06:23:14;7.95;;;4.82;;
24897;SDS011;12957;49.434;8.684;2023-09-30T06:25:39;7.57;;;4.28;;
24897;SDS011;12957;49.434;8.684;2023-09-30T06:28:05;6.18;;;3.63;;
24897;SDS011;12957;49.434;8.684;2023-09-30T06:30:32;9.75;;;4.38;;
24897;SDS011;12957;49.434;8.684;2023-09-30T06:32:59;7.18;;;4.68;;
24897;SDS011;12957;49.434;8.684;2023-09-30T06:35:25;9.20;;;4.57;;
24897;SDS011;12957;49.434;8.684;2023-09-30T06:37:51;8.57;;;4.82;;
24897;SDS011;12957;49.434;8.684;2023-09-30T06:40:17;7.72;;;4.25;;
24897;SDS011;12957;49.434;8.684;2023-09-30T06:42:43;7.65;;;4.22;;
24897;SDS011;12957;49.434;8.684;2023-09-30T06:45:09;11.70;;;4.55;;
24897;SDS011;12957;49.434;8.684;2023-09-30T06:47:36;7.20;;;4.22;;
24897;SDS011;12957;49.434;8.684;2023-09-30T06:50:02;8.10;;;4.40;;
24897;SDS011;12957;49.434;8.684;2023-09-30T06:52:33;7.90;;;4.32;;
24897;SDS011;12957;49.434;8.684;2023-09-30T06:54:59;7.03;;;4.63;;
24897;SDS011;12957;49.434;8.684;2023-09-30T06:57:25;5.95;;;3.95;;
24897;SDS011;12957;49.434;8.684;2023-09-30T06:59:50;6.95;;;3.55;;
24897;SDS011;12957;49.434;8.684;2023-09-30T07:02:16;9.40;;;4.38;;
24897;SDS011;12957;49.434;8.684;2023-09-30T07:04:41;7.57;;;3.88;;
24897;SDS011;12957;49.434;8.684;2023-09-30T07:07:10;10.70;;;3.88;;
24897;SDS011;12957;49.434;8.684;2023-09-30T07:09:35;5.93;;;3.78;;
24897;SDS011;12957;49.434;8.684;2023-09-30T07:12:01;5.85;;;3.40;;
24897;SDS011;12957;49.434;8.684;2023-09-30T07:14:27;7.00;;;3.75;;
24897;SDS011;12957;49.434;8.684;2023-09-30T07:16:52;7.82;;;3.47;;
24897;SDS011;12957;49.434;8.684;2023-09-30T07:19:18;4.63;;;3.40;;
24897;SDS011;12957;49.434;8.684;2023-09-30T07:21:43;6.75;;;3.30;;
24897;SDS011;12957;49.434;8.684;2023-09-30T07:24:09;5.45;;;3.40;;
24897;SDS011;12957;49.434;8.684;2023-09-30T07:26:35;9.48;;;4.20;;
24897;SDS011;12957;49.434;8.684;2023-09-30T07:29:01;12.27;;;3.95;;
24897;SDS011;12957;49.434;8.684;2023-09-30T07:31:26;7.88;;;4.25;;
24897;SDS011;12957;49.434;8.684;2023-09-30T07:33:52;9.88;;;4.53;;
24897;SDS011;12957;49.434;8.684;2023-09-30T07:36:17;6.55;;;4.00;;
24897;SDS011;12957;49.434;8.684;2023-09-30T07:38:43;8.35;;;3.80;;
24897;SDS011;12957;49.434;8.684;2023-09-30T07:41:08;8.52;;;3.80;;
24897;SDS011;12957;49.434;8.684;2023-09-30T07:43:35;10.93;;;4.63;;
24897;SDS011;12957;49.434;8.684;2023-09-30T07:46:05;5.53;;;3.65;;
24897;SDS011;12957;49.434;8.684;2023-09-30T07:48:31;6.57;;;3.92;;
24897;SDS011;12957;49.434;8.684;2023-09-30T07:50:57;7.90;;;4.43;;
24897;SDS011;12957;49.434;8.684;2023-09-30T07:53:23;8.57;;;4.28;;
24897;SDS011;12957;49.434;8.684;2023-09-30T07:55:48;9.20;;;3.67;;
24897;SDS011;12957;49.434;8.684;2023-09-30T07:58:14;8.07;;;3.90;;
24897;SDS011;12957;49.434;8.684;2023-09-30T08:00:39;8.73;;;3.55;;
24897;SDS011;12957;49.434;8.684;2023-09-30T08:03:05;8.70;;;3.63;;
24897;SDS011;12957;49.434;8.684;2023-09-30T08:05:31;6.72;;;3.20;;
24897;SDS011;12957;49.434;8.684;2023-09-30T08:07:56;8.50;;;3.60;;
24897;SDS011;12957;49.434;8.684;2023-09-30T08:10:22;10.10;;;3.60;;
24897;SDS011;12957;49.434;8.684;2023-09-30T08:12:47;8.43;;;3.80;;
24897;SDS011;12957;49.434;8.684;2023-09-30T08:15:14;7.90;;;3.58;;
24897;SDS011;12957;49.434;8.684;2023-09-30T08:17:40;5.53;;;3.40;;
24897;SDS011;12957;49.434;8.684;2023-09-30T08:20:06;8.48;;;3.78;;
24897;SDS011;12957;49.434;8.684;2023-09-30T08:22:33;6.15;;;3.50;;
24897;SDS011;12957;49.434;8.684;2023-09-30T08:24:59;9.52;;;4.05;;
24897;SDS011;12957;49.434;8.684;2023-09-30T08:27:25;3.63;;;2.72;;
24897;SDS011;12957;49.434;8.684;2023-09-30T08:29:50;6.32;;;3.72;;
24897;SDS011;12957;49.434;8.684;2023-09-30T08:32:16;7.75;;;3.45;;
24897;SDS011;12957;49.434;8.684;2023-09-30T08:34:41;6.57;;;3.28;;
24897;SDS011;12957;49.434;8.684;2023-09-30T08:37:07;5.78;;;3.00;;
24897;SDS011;12957;49.434;8.684;2023-09-30T08:39:32;6.65;;;3.55;;
24897;SDS011;12957;49.434;8.684;2023-09-30T08:41:58;7.65;;;3.28;;
24897;SDS011;12957;49.434;8.684;2023-09-30T08:44:28;8.15;;;3.60;;
24897;SDS011;12957;49.434;8.684;2023-09-30T08:46:54;8.02;;;3.55;;
24897;SDS011;12957;49.434;8.684;2023-09-30T08:49:21;8.23;;;3.05;;
24897;SDS011;12957;49.434;8.684;2023-09-30T08:51:48;7.68;;;3.53;;
24897;SDS011;12957;49.434;8.684;2023-09-30T08:54:14;4.15;;;3.00;;
24897;SDS011;12957;49.434;8.684;2023-09-30T08:56:40;8.45;;;3.33;;
24897;SDS011;12957;49.434;8.684;2023-09-30T08:59:06;11.70;;;3.67;;
24897;SDS011;12957;49.434;8.684;2023-09-30T09:01:31;6.20;;;2.97;;
24897;SDS011;12957;49.434;8.684;2023-09-30T09:03:58;5.22;;;2.70;;
24897;SDS011;12957;49.434;8.684;2023-09-30T09:06:24;5.53;;;3.17;;
24897;SDS011;12957;49.434;8.684;2023-09-30T09:08:50;9.15;;;3.38;;
24897;SDS011;12957;49.434;8.684;2023-09-30T09:11:15;6.07;;;2.85;;
24897;SDS011;12957;49.434;8.684;2023-09-30T09:13:52;7.80;;;3.10;;
24897;SDS011;12957;49.434;8.684;2023-09-30T09:16:21;6.93;;;3.08;;
24897;SDS011;12957;49.434;8.684;2023-09-30T09:18:48;5.97;;;3.30;;
24897;SDS011;12957;49.434;8.684;2023-09-30T09:21:20;7.70;;;3.58;;
24897;SDS011;12957;49.434;8.684;2023-09-30T09:23:48;7.75;;;3.45;;
24897;SDS011;12957;49.434;8.684;2023-09-30T09:26:27;8.20;;;3.55;;
24897;SDS011;12957;49.434;8.684;2023-09-30T09:28:57;6.00;;;3.50;;
24897;SDS011;12957;49.434;8.684;2023-09-30T09:31:27;7.85;;;3.58;;
24897;SDS011;12957;49.434;8.684;2023-09-30T09:33:53;6.50;;;3.30;;
24897;SDS011;12957;49.434;8.684;2023-09-30T09:36:19;9.88;;;3.55;;
24897;SDS011;12957;49.434;8.684;2023-09-30T09:38:48;7.15;;;3.53;;
24897;SDS011;12957;49.434;8.684;2023-09-30T09:41:17;9.20;;;4.00;;
24897;SDS011;12957;49.434;8.684;2023-09-30T09:43:43;6.70;;;3.22;;
24897;SDS011;12957;49.434;8.684;2023-09-30T09:46:09;9.18;;;3.30;;
24897;SDS011;12957;49.434;8.684;2023-09-30T09:48:35;5.72;;;3.13;;
24897;SDS011;12957;49.434;8.684;2023-09-30T09:51:01;5.88;;;3.05;;
24897;SDS011;12957;49.434;8.684;2023-09-30T09:53:29;7.22;;;3.30;;
24897;SDS011;12957;49.434;8.684;2023-09-30T09:55:56;6.90;;;3.28;;
24897;SDS011;12957;49.434;8.684;2023-09-30T09:58:23;6.45;;;2.83;;
24897;SDS011;12957;49.434;8.684;2023-09-30T10:00:50;9.20;;;3.50;;
24897;SDS011;12957;49.434;8.684;2023-09-30T10:03:16;7.82;;;3.53;;
24897;SDS011;12957;49.434;8.684;2023-09-30T10:05:42;5.35;;;3.10;;
24897;SDS011;12957;49.434;8.684;2023-09-30T10:08:13;7.55;;;3.30;;
24897;SDS011;12957;49.434;8.684;2023-09-30T10:10:41;6.47;;;3.30;;
24897;SDS011;12957;49.434;8.684;2023-09-30T10:13:07;7.65;;;3.90;;
24897;SDS011;12957;49.434;8.684;2023-09-30T10:20:40;6.50;;;3.30;;
24897;SDS011;12957;49.434;8.684;2023-09-30T10:25:43;10.75;;;3.80;;
24897;SDS011;12957;49.434;8.684;2023-09-30T10:31:10;6.15;;;3.40;;
24897;SDS011;12957;49.434;8.684;2023-09-30T10:36:32;7.60;;;3.70;;
24897;SDS011;12957;49.434;8.684;2023-09-30T10:38:59;11.18;;;4.35;;
24897;SDS011;12957;49.434;8.684;2023-09-30T10:41:58;10.95;;;4.32;;
24897;SDS011;12957;49.434;8.684;2023-09-30T10:47:00;11.65;;;4.40;;
24897;SDS011;12957;49.434;8.684;2023-09-30T10:49:46;8.82;;;4.10;;
24897;SDS011;12957;49.434;8.684;2023-09-30T10:52:12;10.70;;;4.53;;
24897;SDS011;12957;49.434;8.684;2023-09-30T10:54:47;9.70;;;4.40;;
24897;SDS011;12957;49.434;8.684;2023-09-30T10:57:13;6.90;;;4.10;;
24897;SDS011;12957;49.434;8.684;2023-09-30T11:00:06;9.35;;;4.05;;
24897;SDS011;12957;49.434;8.684;2023-09-30T11:02:47;9.38;;;3.75;;
24897;SDS011;12957;49.434;8.684;2023-09-30T11:05:14;7.32;;;4.22;;
24897;SDS011;12957;49.434;8.684;2023-09-30T11:07:39;9.82;;;4.50;;
24897;SDS011;12957;49.434;8.684;2023-09-30T11:10:06;9.27;;;4.25;;
24897;SDS011;12957;49.434;8.684;2023-09-30T11:12:31;16.17;;;4.63;;
24897;SDS011;12957;49.434;8.684;2023-09-30T11:15:01;10.93;;;4.70;;
24897;SDS011;12957;49.434;8.684;2023-09-30T11:17:27;8.77;;;3.97;;
24897;SDS011;12957;49.434;8.684;2023-09-30T11:19:52;11.75;;;5.38;;
24897;SDS011;12957;49.434;8.684;2023-09-30T11:22:19;11.40;;;5.60;;
24897;SDS011;12957;49.434;8.684;2023-09-30T11:24:45;15.40;;;6.50;;
24897;SDS011;12957;49.434;8.684;2023-09-30T11:27:11;10.98;;;5.65;;
24897;SDS011;12957;49.434;8.684;2023-09-30T11:29:36;12.82;;;5.53;;
24897;SDS011;12957;49.434;8.684;2023-09-30T11:32:02;10.13;;;5.65;;
24897;SDS011;12957;49.434;8.684;2023-09-30T11:34:31;10.70;;;5.15;;
24897;SDS011;12957;49.434;8.684;2023-09-30T11:36:58;12.02;;;5.25;;
24897;SDS011;12957;49.434;8.684;2023-09-30T11:39:29;10.48;;;5.28;;
24897;SDS011;12957;49.434;8.684;2023-09-30T11:41:56;12.75;;;4.75;;
24897;SDS011;12957;49.434;8.684;2023-09-30T11:44:22;11.95;;;4.82;;
24897;SDS011;12957;49.434;8.684;2023-09-30T11:51:57;9.13;;;4.93;;
24897;SDS011;12957;49.434;8.684;2023-09-30T11:54:28;8.45;;;4.05;;
24897;SDS011;12957;49.434;8.684;2023-09-30T11:57:02;11.65;;;5.57;;
24897;SDS011;12957;49.434;8.684;2023-09-30T11:59:28;9.38;;;4.35;;
24897;SDS011;12957;49.434;8.684;2023-09-30T12:01:54;10.82;;;4.32;;
24897;SDS011;12957;49.434;8.684;2023-09-30T12:04:20;8.40;;;4.38;;
24897;SDS011;12957;49.434;8.684;2023-09-30T12:06:46;12.13;;;4.80;;
24897;SDS011;12957;49.434;8.684;2023-09-30T12:09:13;9.07;;;4.70;;
24897;SDS011;12957;49.434;8.684;2023-09-30T12:11:42;8.90;;;4.85;;
24897;SDS011;12957;49.434;8.684;2023-09-30T12:14:10;11.73;;;5.43;;
24897;SDS011;12957;49.434;8.684;2023-09-30T12:16:37;16.08;;;5.43;;
24897;SDS011;12957;49.434;8.684;2023-09-30T12:19:02;12.13;;;5.63;;
24897;SDS011;12957;49.434;8.684;2023-09-30T12:21:28;11.15;;;5.35;;
24897;SDS011;12957;49.434;8.684;2023-09-30T12:23:53;10.48;;;4.63;;
24897;SDS011;12957;49.434;8.684;2023-09-30T12:26:19;13.73;;;5.28;;
24897;SDS011;12957;49.434;8.684;2023-09-30T12:28:45;14.30;;;5.38;;
24897;SDS011;12957;49.434;8.684;2023-09-30T12:31:11;12.05;;;5.70;;
24897;SDS011;12957;49.434;8.684;2023-09-30T12:33:36;9.13;;;4.35;;
24897;SDS011;12957;49.434;8.684;2023-09-30T12:36:02;12.45;;;5.13;;
24897;SDS011;12957;49.434;8.684;2023-09-30T12:38:27;11.88;;;5.13;;
24897;SDS011;12957;49.434;8.684;2023-09-30T12:40:53;10.63;;;5.20;;
24897;SDS011;12957;49.434;8.684;2023-09-30T12:43:19;10.15;;;4.97;;
24897;SDS011;12957;49.434;8.684;2023-09-30T12:45:45;12.20;;;4.72;;
24897;SDS011;12957;49.434;8.684;2023-09-30T12:48:12;10.45;;;5.00;;
24897;SDS011;12957;49.434;8.684;2023-09-30T12:50:37;11.13;;;5.13;;
24897;SDS011;12957;49.434;8.684;2023-09-30T12:53:03;10.13;;;5.10;;
24897;SDS011;12957;49.434;8.684;2023-09-30T12:55:28;16.33;;;5.13;;
24897;SDS011;12957;49.434;8.684;2023-09-30T12:57:54;11.70;;;5.10;;
24897;SDS011;12957;49.434;8.684;2023-09-30T13:00:19;7.82;;;4.50;;
24897;SDS011;12957;49.434;8.684;2023-09-30T13:02:47;13.38;;;4.75;;
24897;SDS011;12957;49.434;8.684;2023-09-30T13:05:13;11.18;;;5.18;;
24897;SDS011;12957;49.434;8.684;2023-09-30T13:07:39;15.93;;;5.53;;
24897;SDS011;12957;49.434;8.684;2023-09-30T13:10:04;10.88;;;4.95;;
24897;SDS011;12957;49.434;8.684;2023-09-30T13:12:31;8.10;;;4.55;;
24897;SDS011;12957;49.434;8.684;2023-09-30T13:15:00;8.50;;;4.72;;
24897;SDS011;12957;49.434;8.684;2023-09-30T13:17:26;9.23;;;4.60;;
24897;SDS011;12957;49.434;8.684;2023-09-30T13:19:51;8.18;;;4.43;;
24897;SDS011;12957;49.434;8.684;2023-09-30T13:22:17;8.48;;;4.38;;
24897;SDS011;12957;49.434;8.684;2023-09-30T13:24:43;8.25;;;4.35;;
24897;SDS011;12957;49.434;8.684;2023-09-30T13:27:09;10.23;;;4.82;;
24897;SDS011;12957;49.434;8.684;2023-09-30T13:30:43;11.07;;;4.90;;
24897;SDS011;12957;49.434;8.684;2023-09-30T13:33:10;10.90;;;4.60;;
24897;SDS011;12957;49.434;8.684;2023-09-30T13:35:36;9.20;;;4.68;;
24897;SDS011;12957;49.434;8.684;2023-09-30T13:38:02;7.78;;;4.30;;
24897;SDS011;12957;49.434;8.684;2023-09-30T13:40:28;9.52;;;4.60;;
24897;SDS011;12957;49.434;8.684;2023-09-30T13:42:54;9.38;;;4.40;;
24897;SDS011;12957;49.434;8.684;2023-09-30T13:45:19;10.57;;;4.65;;
24897;SDS011;12957;49.434;8.684;2023-09-30T13:47:45;10.80;;;4.95;;
24897;SDS011;12957;49.434;8.684;2023-09-30T13:50:10;8.68;;;4.43;;
24897;SDS011;12957;49.434;8.684;2023-09-30T13:52:36;10.10;;;4.65;;
24897;SDS011;12957;49.434;8.684;2023-09-30T13:55:01;9.00;;;4.10;;
24897;SDS011;12957;49.434;8.684;2023-09-30T13:57:28;11.65;;;4.60;;
24897;SDS011;12957;49.434;8.684;2023-09-30T13:59:54;11.55;;;4.53;;
24897;SDS011;12957;49.434;8.684;2023-09-30T14:02:19;9.70;;;4.78;;
24897;SDS011;12957;49.434;8.684;2023-09-30T14:04:44;9.63;;;4.40;;
24897;SDS011;12957;49.434;8.684;2023-09-30T14:07:10;13.25;;;5.00;;
24897;SDS011;12957;49.434;8.684;2023-09-30T14:09:36;12.18;;;4.13;;
24897;SDS011;12957;49.434;8.684;2023-09-30T14:12:01;10.13;;;4.70;;
24897;SDS011;12957;49.434;8.684;2023-09-30T14:14:30;13.20;;;4.70;;
24897;SDS011;12957;49.434;8.684;2023-09-30T14:16:56;9.88;;;5.00;;
24897;SDS011;12957;49.434;8.684;2023-09-30T14:19:22;10.13;;;4.63;;
24897;SDS011;12957;49.434;8.684;2023-09-30T14:21:48;7.30;;;4.55;;
24897;SDS011;12957;49.434;8.684;2023-09-30T14:24:14;10.57;;;5.00;;
24897;SDS011;12957;49.434;8.684;2023-09-30T14:26:40;8.80;;;4.32;;
24897;SDS011;12957;49.434;8.684;2023-09-30T14:29:06;11.20;;;4.65;;
24897;SDS011;12957;49.434;8.684;2023-09-30T14:31:31;8.52;;;4.55;;
24897;SDS011;12957;49.434;8.684;2023-09-30T14:33:57;10.05;;;4.45;;
24897;SDS011;12957;49.434;8.684;2023-09-30T14:36:22;10.27;;;4.50;;
24897;SDS011;12957;49.434;8.684;2023-09-30T14:38:48;7.95;;;4.22;;
24897;SDS011;12957;49.434;8.684;2023-09-30T14:41:14;9.40;;;4.75;;
24897;SDS011;12957;49.434;8.684;2023-09-30T14:43:40;9.15;;;4.72;;
24897;SDS011;12957;49.434;8.684;2023-09-30T14:46:05;11.02;;;4.70;;
24897;SDS011;12957;49.434;8.684;2023-09-30T14:48:33;10.50;;;4.40;;
24897;SDS011;12957;49.434;8.684;2023-09-30T14:50:58;8.27;;;4.40;;
24897;SDS011;12957;49.434;8.684;2023-09-30T14:53:24;8.98;;;4.55;;
24897;SDS011;12957;49.434;8.684;2023-09-30T14:55:49;7.05;;;4.10;;
24897;SDS011;12957;49.434;8.684;2023-09-30T14:58:15;8.55;;;4.30;;
24897;SDS011;12957;49.434;8.684;2023-09-30T15:00:40;8.23;;;4.32;;